Time;durP1;ratioP1;P1;durP2;ratioP2;P2;SDS_P1;SDS_P2;PMS_P1;PMS_P2;Temp;Humidity;BMP_temperature;BMP_pressure;BME280_temperature;BME280_humidity;BME280_pressure;Samples;Min_cycle;Max_cycle;Signal;HPM_P1;HPM_P2
2022/07/27 00:02:16;;;;;;;;;26.00;24.25;;;;;27.21;48.29;100401.03;146603;628;46020;-70
2022/07/27 00:05:09;;;;;;;;;24.75;23.50;;;;;27.15;48.99;100400.25;146629;594;45031;-70
2022/07/27 00:08:01;;;;;;;;;31.00;27.50;;;;;27.08;49.02;100401.28;146626;584;45020;-69
2022/07/27 00:10:54;;;;;;;;;26.25;24.00;;;;;27.03;48.80;100399.63;146626;564;46012;-69
2022/07/27 00:13:46;;;;;;;;;26.00;23.75;;;;;26.99;49.08;100388.16;146627;594;45010;-69
2022/07/27 00:16:38;;;;;;;;;23.75;23.00;;;;;27.00;49.19;100394.34;146628;612;45014;-67
2022/07/27 00:19:30;;;;;;;;;29.75;26.75;;;;;27.03;48.69;100394.28;146628;646;45020;-67
2022/07/27 00:22:23;;;;;;;;;29.50;26.25;;;;;27.03;48.97;100397.81;146627;604;46012;-67
2022/07/27 00:25:15;;;;;;;;;26.50;25.00;;;;;27.00;48.94;100389.91;146630;668;45010;-69
2022/07/27 00:28:07;;;;;;;;;27.25;25.25;;;;;25.68;49.07;100189.66;146626;648;45922;-69
2022/07/27 00:30:59;;;;;;;;;26.00;24.50;;;;;26.94;49.36;100398.03;146628;565;45020;-68
2022/07/27 00:33:52;;;;;;;;;25.75;25.75;;;;;26.93;49.52;100398.94;146627;598;45016;-67
2022/07/27 00:36:44;;;;;;;;;28.75;24.50;;;;;26.91;49.69;100398.09;146628;594;45021;-67
2022/07/27 00:39:36;;;;;;;;;26.00;24.25;;;;;26.82;49.44;100399.19;146629;567;45012;-66
2022/07/27 00:42:40;;;;;;;;;27.50;25.00;;;;;26.71;49.11;100404.69;146626;651;45021;-69
2022/07/27 00:45:32;;;;;;;;;28.25;26.00;;;;;26.65;49.71;100401.28;146623;651;45016;-66
2022/07/27 00:48:24;;;;;;;;;29.75;27.50;;;;;26.56;49.62;100399.69;146631;570;45011;-66
2022/07/27 00:51:19;;;;;;;;;24.25;23.25;;;;;26.51;50.45;100401.53;146626;597;45035;-67
2022/07/27 00:54:11;;;;;;;;;26.25;25.00;;;;;26.42;50.37;100391.09;146626;605;45028;-67
2022/07/27 00:57:03;;;;;;;;;30.25;27.25;;;;;26.33;50.05;100384.16;146626;639;45922;-67
2022/07/27 00:59:55;;;;;;;;;24.00;24.00;;;;;26.31;50.32;100382.44;146628;614;45020;-67
2022/07/27 01:02:47;;;;;;;;;28.25;26.25;;;;;26.30;49.51;100384.22;146622;574;47017;-69
2022/07/27 01:05:40;;;;;;;;;25.00;23.50;;;;;26.27;49.35;100373.63;146605;594;46037;-67
2022/07/27 01:08:33;;;;;;;;;23.75;22.75;;;;;26.34;49.16;100382.38;146604;692;46012;-68
2022/07/27 01:11:25;;;;;;;;;30.25;27.50;;;;;26.37;48.10;100371.69;146606;620;46011;-67
2022/07/27 01:14:19;;;;;;;;;26.25;24.75;;;;;26.34;48.52;100367.28;146603;563;46016;-67
2022/07/27 01:17:11;;;;;;;;;27.25;25.75;;;;;26.35;48.57;100379.66;146606;594;46010;-69
2022/07/27 01:20:03;;;;;;;;;26.75;25.25;;;;;26.35;48.24;100378.78;146604;592;46028;-68
2022/07/27 01:23:16;;;;;;;;;24.25;21.75;;;;;26.41;48.70;100368.91;146607;596;46020;-68
2022/07/27 01:26:28;;;;;;;;;25.50;24.25;;;;;26.52;48.61;100376.72;146604;602;47013;-71
2022/07/27 01:29:20;;;;;;;;;23.50;23.50;;;;;26.56;49.00;100373.09;146604;565;46020;-71
2022/07/27 01:32:12;;;;;;;;;25.00;22.75;;;;;26.57;49.17;100371.31;146606;578;46017;-71
2022/07/27 01:35:04;;;;;;;;;28.00;25.50;;;;;26.56;49.18;100373.09;146605;577;46021;-71
2022/07/27 01:37:56;;;;;;;;;26.00;24.00;;;;;26.57;49.19;100369.50;146603;685;46012;-70
2022/07/27 01:40:48;;;;;;;;;27.25;26.25;;;;;26.56;49.66;100366.91;146604;654;46021;-66
2022/07/27 01:43:41;;;;;;;;;27.50;26.75;;;;;26.49;49.56;100364.38;146604;574;46016;-68
2022/07/27 01:46:33;;;;;;;;;28.75;26.75;;;;;26.40;49.83;100361.84;146607;573;46020;-66
2022/07/27 01:49:25;;;;;;;;;31.50;28.50;;;;;26.32;49.89;100365.56;146605;572;46016;-72
2022/07/27 01:52:17;;;;;;;;;27.50;26.75;;;;;26.25;49.64;100356.84;146609;565;46010;-71
2022/07/27 01:55:13;;;;;;;;;27.75;26.25;;;;;26.21;50.06;100356.03;146605;565;46034;-70
2022/07/27 01:58:06;;;;;;;;;29.00;26.25;;;;;26.19;50.24;100357.81;146610;606;46020;-68
2022/07/27 02:00:58;;;;;;;;;26.75;25.25;;;;;26.17;50.10;100353.47;146604;582;46014;-68
2022/07/27 02:03:50;;;;;;;;;26.50;25.75;;;;;26.15;50.49;100350.81;146608;587;46011;-69
2022/07/27 02:06:42;;;;;;;;;24.50;22.50;;;;;26.15;50.96;100355.25;146604;573;46012;-70
2022/07/27 02:09:34;;;;;;;;;27.75;25.75;;;;;26.11;50.65;100351.78;146610;574;46010;-69
2022/07/27 02:12:35;;;;;;;;;26.75;23.25;;;;;26.10;50.63;100350.03;146606;616;46016;-69
2022/07/27 02:15:29;;;;;;;;;28.00;26.00;;;;;26.08;50.99;100346.53;146608;622;46020;-69
2022/07/27 02:18:22;;;;;;;;;26.00;24.50;;;;;26.06;50.42;100344.81;146602;628;46922;-69
2022/07/27 02:21:13;;;;;;;;;25.00;23.75;;;;;26.03;51.21;100335.97;146610;587;46010;-69
2022/07/27 02:24:06;;;;;;;;;25.25;24.25;;;;;26.00;50.86;100351.09;146605;644;46012;-70
2022/07/27 02:26:57;;;;;;;;;29.75;27.25;;;;;25.99;51.01;100344.03;146609;569;46010;-69
2022/07/27 02:29:50;;;;;;;;;28.75;26.50;;;;;25.94;50.83;100345.91;146603;586;46921;-71
2022/07/27 02:33:43;;;;;;;;;;;;;;;;;;;;;
2022/07/27 02:41:03;;;;;;;;;32.75;27.50;;;;;25.80;50.65;100333.72;146605;598;46012;-67
2022/07/27 02:44:20;;;;;;;;;27.25;26.50;;;;;25.76;50.79;100332.03;146604;654;46016;-66
2022/07/27 02:47:12;;;;;;;;;26.50;25.00;;;;;25.71;51.43;100335.66;146608;668;46015;-65
2022/07/27 02:50:09;;;;;;;;;27.50;27.00;;;;;25.67;50.99;100336.59;146604;646;46012;-66
2022/07/27 02:53:00;;;;;;;;;29.50;27.75;;;;;25.66;51.49;100341.03;146605;594;46010;-67
2022/07/27 02:55:53;;;;;;;;;26.50;25.50;;;;;25.63;50.89;100324.28;146605;573;46016;-69
2022/07/27 02:58:45;;;;;;;;;27.00;25.75;;;;;25.68;50.79;100330.41;146607;666;46020;-69
2022/07/27 03:01:37;;;;;;;;;26.75;25.25;;;;;25.74;51.28;100341.78;146604;613;46017;-68
2022/07/27 03:04:30;;;;;;;;;27.50;26.00;;;;;25.75;50.61;100337.34;146607;590;46021;-67
2022/07/27 03:07:22;;;;;;;;;23.25;22.25;;;;;25.77;50.24;100336.41;146604;600;46012;-68
2022/07/27 03:10:14;;;;;;;;;26.75;25.00;;;;;25.81;50.22;100334.63;146607;565;46011;-70
2022/07/27 03:13:06;;;;;;;;;25.25;23.00;;;;;25.78;49.70;100334.63;146603;665;46012;-71
2022/07/27 03:15:58;;;;;;;;;24.00;20.00;;;;;25.77;49.59;100343.50;146607;621;46020;-68
2022/07/27 03:18:50;;;;;;;;;27.50;25.75;;;;;25.79;49.67;100341.69;146603;618;46924;-69
2022/07/27 03:22:02;;;;;;;;;23.00;23.00;;;;;24.58;49.28;100134.03;146608;563;46010;-67
2022/07/27 03:24:54;;;;;;;;;24.00;22.50;;;;;25.82;49.46;100359.37;146604;607;46032;-65
2022/07/27 03:27:46;;;;;;;;;21.00;18.50;;;;;25.77;49.55;100351.47;146608;582;46010;-66
2022/07/27 03:30:39;;;;;;;;;21.50;20.25;;;;;25.74;49.96;100347.09;146603;584;46016;-67
2022/07/27 03:33:31;;;;;;;;;24.50;21.75;;;;;25.68;50.22;100351.63;146608;587;46021;-67
2022/07/27 03:36:22;;;;;;;;;25.50;22.25;;;;;25.59;50.03;100350.00;146603;619;46923;-68
2022/07/27 03:39:31;;;;;;;;;;;;;;;;;;;;;
2022/07/27 03:43:15;;;;;;;;;22.00;20.25;;;;;25.52;49.67;100348.38;146605;577;46016;-71
2022/07/27 03:46:07;;;;;;;;;22.75;19.00;;;;;25.60;49.67;100348.22;146607;573;46021;-70
2022/07/27 03:49:03;;;;;;;;;24.75;22.00;;;;;25.66;49.33;100340.16;146601;569;47012;-70
2022/07/27 03:52:02;;;;;;;;;20.50;19.00;;;;;25.72;49.50;100348.87;146609;603;46010;-71
2022/07/27 03:55:00;;;;;;;;;20.25;19.00;;;;;25.72;49.71;100345.37;146603;576;46017;-68
2022/07/27 03:57:51;;;;;;;;;22.00;19.75;;;;;25.73;50.10;100355.97;146606;564;46010;-69
2022/07/27 04:04:48;;;;;;;;;23.25;20.50;;;;;25.75;50.42;100358.59;146605;609;46020;-69
2022/07/27 04:07:41;;;;;;;;;23.25;22.75;;;;;25.82;50.76;100364.69;146601;659;46015;-68
2022/07/27 04:10:33;;;;;;;;;21.75;20.00;;;;;25.83;50.87;100363.81;146605;613;46029;-68
2022/07/27 04:13:45;;;;;;;;;26.75;25.25;;;;;25.84;50.93;100370.88;146605;575;46016;-67
2022/07/27 04:16:51;;;;;;;;;24.75;21.50;;;;;25.86;50.67;100361.97;146603;572;46011;-69
2022/07/27 04:19:48;;;;;;;;;20.75;19.75;;;;;25.91;51.14;100373.38;146604;585;46016;-69
2022/07/27 04:22:40;;;;;;;;;24.75;21.50;;;;;25.95;51.39;100376.84;146605;575;46021;-70
2022/07/27 04:25:32;;;;;;;;;22.25;18.25;;;;;26.01;51.64;100374.09;146606;588;46016;-70
2022/07/27 04:28:25;;;;;;;;;22.00;19.75;;;;;26.11;51.67;100378.38;146603;565;46020;-69
2022/07/27 04:31:17;;;;;;;;;21.75;19.25;;;;;26.20;52.28;100383.50;146605;602;46017;-70
2022/07/27 04:34:12;;;;;;;;;20.75;19.25;;;;;26.31;51.52;100385.09;146606;622;46020;-66
2022/07/27 04:37:04;;;;;;;;;19.25;17.75;;;;;26.45;52.46;100380.38;146602;587;46016;-67
2022/07/27 04:40:00;;;;;;;;;20.25;18.75;;;;;26.56;52.48;100383.72;146605;604;46021;-67
2022/07/27 04:42:56;;;;;;;;;20.75;19.25;;;;;26.65;52.22;100393.31;146605;574;46014;-68
2022/07/27 04:45:48;;;;;;;;;23.50;18.50;;;;;26.78;50.85;100396.59;146608;649;46010;-68
2022/07/27 04:48:41;;;;;;;;;23.00;22.00;;;;;26.93;50.09;100399.81;146604;572;46016;-67
2022/07/27 04:51:34;;;;;;;;;20.75;20.00;;;;;27.15;49.82;100410.03;146607;683;46020;-69
2022/07/27 04:54:26;;;;;;;;;18.50;17.75;;;;;27.32;49.86;100405.22;146601;565;46017;-67
2022/07/27 04:57:18;;;;;;;;;20.50;19.25;;;;;27.52;48.32;100407.41;146607;599;46010;-68
2022/07/27 05:00:14;;;;;;;;;18.50;16.25;;;;;27.75;45.33;100411.28;146603;576;46017;-70
2022/07/27 05:03:08;;;;;;;;;16.50;15.75;;;;;27.90;45.83;100408.28;146605;563;46020;-66
2022/07/27 05:06:00;;;;;;;;;18.50;17.25;;;;;28.13;44.75;100421.03;146603;661;46012;-67
2022/07/27 05:08:52;;;;;;;;;14.00;13.00;;;;;28.33;44.79;100417.84;146604;696;46021;-68
2022/07/27 05:11:45;;;;;;;;;14.50;13.75;;;;;28.50;44.69;100409.41;146604;588;46014;-67
2022/07/27 05:14:37;;;;;;;;;18.00;15.50;;;;;28.67;43.66;100414.28;146608;604;46010;-67
2022/07/27 05:17:29;;;;;;;;;17.50;16.25;;;;;28.81;44.20;100416.53;146603;603;46016;-69
2022/07/27 05:20:22;;;;;;;;;18.75;18.00;;;;;28.95;45.99;100419.69;146606;578;46010;-69
2022/07/27 05:23:14;;;;;;;;;19.25;18.75;;;;;29.15;46.03;100413.78;146605;630;47012;-69
2022/07/27 05:26:07;;;;;;;;;17.25;16.75;;;;;29.42;44.51;100412.06;146609;626;45020;-68
2022/07/27 05:28:59;;;;;;;;;19.00;18.50;;;;;29.65;43.94;100414.88;146605;651;46013;-67
2022/07/27 05:31:51;;;;;;;;;15.50;15.50;;;;;29.83;43.07;100416.09;146605;637;46020;-68
2022/07/27 05:34:44;;;;;;;;;16.50;14.50;;;;;29.99;42.67;100413.78;146603;578;47012;-68
2022/07/27 05:37:37;;;;;;;;;18.75;17.50;;;;;30.14;42.77;100418.59;146606;632;46014;-66
2022/07/27 05:40:29;;;;;;;;;21.25;18.00;;;;;30.31;43.37;100418.06;146602;573;46016;-67
2022/07/27 05:43:21;;;;;;;;;23.50;19.75;;;;;30.49;40.90;100420.97;146606;638;47015;-70
2022/07/27 05:46:13;;;;;;;;;22.25;22.25;;;;;30.61;42.29;100426.75;146603;581;46030;-70
2022/07/27 05:49:05;;;;;;;;;20.50;20.00;;;;;30.74;41.64;100431.66;146604;605;46020;-70
2022/07/27 05:51:58;;;;;;;;;20.50;19.25;;;;;30.86;41.33;100425.91;146603;580;46013;-69
2022/07/27 05:54:50;;;;;;;;;20.00;20.00;;;;;30.98;40.29;100430.78;146607;577;46012;-69
2022/07/27 05:57:45;;;;;;;;;23.25;21.25;;;;;31.02;40.56;100429.72;146604;640;46923;-70
2022/07/27 06:00:37;;;;;;;;;20.25;19.00;;;;;31.03;39.80;100444.88;146607;577;46020;-69
2022/07/27 06:03:30;;;;;;;;;23.00;19.75;;;;;31.06;40.23;100442.09;146602;601;46012;-69
2022/07/27 06:09:32;;;;;;;;;27.00;26.00;;;;;31.13;40.76;100442.72;146604;570;46016;-70
2022/07/27 06:12:24;;;;;;;;;30.25;28.75;;;;;31.21;39.86;100437.94;146608;603;46020;-70
2022/07/27 06:15:18;;;;;;;;;23.50;22.00;;;;;31.32;41.10;100447.37;146605;642;47014;-70
2022/07/27 06:18:16;;;;;;;;;20.25;20.25;;;;;31.39;40.33;100447.09;146606;617;46020;-69
2022/07/27 06:21:09;;;;;;;;;18.50;18.50;;;;;31.49;40.53;100444.91;146606;590;46014;-70
2022/07/27 06:24:01;;;;;;;;;27.50;27.00;;;;;31.58;39.72;100441.00;146606;603;46030;-69
2022/07/27 06:26:53;;;;;;;;;26.75;24.75;;;;;31.66;40.08;100438.91;146605;626;46012;-69
2022/07/27 06:29:54;;;;;;;;;26.75;25.75;;;;;31.76;40.03;100442.94;146609;591;46010;-70
2022/07/27 06:32:46;;;;;;;;;22.75;21.25;;;;;31.89;38.73;100454.06;146603;599;46016;-70
2022/07/27 06:35:38;;;;;;;;;26.25;23.50;;;;;32.00;39.57;100446.47;146607;594;46021;-70
2022/07/27 06:38:31;;;;;;;;;23.25;22.75;;;;;32.13;38.21;100446.81;146604;644;46016;-71
2022/07/27 06:41:23;;;;;;;;;24.25;22.75;;;;;32.27;39.85;100446.19;146606;569;46020;-71
2022/07/27 06:44:15;;;;;;;;;21.00;20.25;;;;;32.44;38.99;100449.06;146606;622;46012;-69
2022/07/27 06:47:07;;;;;;;;;22.50;21.25;;;;;32.64;38.18;100449.03;146608;586;46010;-70
2022/07/27 06:49:59;;;;;;;;;18.50;17.50;;;;;32.82;38.43;100446.47;146603;583;47012;-70
2022/07/27 06:52:51;;;;;;;;;21.50;20.25;;;;;32.98;37.93;100438.62;146605;563;46020;-70
2022/07/27 06:55:43;;;;;;;;;20.25;19.25;;;;;33.14;37.39;100438.78;146606;612;46012;-70
2022/07/27 06:58:36;;;;;;;;;20.75;19.75;;;;;33.26;37.07;100436.38;146608;592;46010;-70
2022/07/27 07:01:29;;;;;;;;;22.25;20.75;;;;;33.35;36.52;100438.62;146603;600;46033;-70
2022/07/27 07:04:21;;;;;;;;;19.50;18.75;;;;;33.42;35.64;100443.72;146607;595;46010;-70
2022/07/27 07:07:13;;;;;;;;;20.25;17.75;;;;;33.40;35.57;100437.53;146603;606;46924;-70
2022/07/27 07:10:05;;;;;;;;;20.25;17.75;;;;;33.44;36.57;100445.38;146604;583;46020;-70
2022/07/27 07:12:58;;;;;;;;;21.50;20.75;;;;;33.53;37.21;100436.91;146604;604;46035;-70
2022/07/27 07:15:49;;;;;;;;;18.50;18.50;;;;;33.70;37.27;100429.81;146607;574;46010;-70
2022/07/27 07:18:42;;;;;;;;;21.75;19.75;;;;;33.73;36.31;100425.16;146604;575;46012;-70
2022/07/27 07:21:34;;;;;;;;;16.50;16.25;;;;;33.70;36.47;100428.00;146606;604;46010;-70
2022/07/27 07:24:28;;;;;;;;;21.25;20.75;;;;;33.64;36.34;100427.44;146603;637;46016;-70
2022/07/27 07:27:28;;;;;;;;;17.50;16.00;;;;;33.64;36.77;100427.44;146603;619;47014;-70
2022/07/27 07:30:20;;;;;;;;;11.25;7.75;;;;;33.71;35.18;100421.69;146603;565;46016;-71
2022/07/27 07:33:12;;;;;;;;;14.75;14.75;;;;;33.80;34.87;100423.94;146604;614;46020;-71
2022/07/27 07:36:11;;;;;;;;;17.25;15.00;;;;;33.90;34.57;100424.34;146604;578;46033;-70
2022/07/27 07:39:03;;;;;;;;;16.75;16.00;;;;;34.00;34.56;100425.59;146606;647;46020;-71
2022/07/27 07:50:51;;;;;;;;;;;;;;;;;;;;;
2022/07/27 07:54:02;;;;;;;;;15.50;15.50;;;;;33.93;37.01;100424.19;146606;682;46009;-70
2022/07/27 07:56:54;;;;;;;;;18.00;16.75;;;;;33.09;36.73;100284.06;146604;605;46926;-69
2022/07/27 07:59:47;;;;;;;;;18.25;18.25;;;;;33.84;37.81;100419.25;146607;672;46010;-70
2022/07/27 08:02:58;;;;;;;;;15.50;13.50;;;;;33.74;38.18;100412.56;146605;582;47012;-70
2022/07/27 08:05:50;;;;;;;;;17.50;13.75;;;;;33.72;37.90;100422.56;146628;575;45020;-70
2022/07/27 08:08:42;;;;;;;;;15.50;14.25;;;;;33.71;36.96;100423.50;146629;610;45012;-69
2022/07/27 08:11:34;;;;;;;;;19.75;17.00;;;;;33.67;35.43;100419.22;146630;570;45011;-69
2022/07/27 08:14:27;;;;;;;;;15.50;13.75;;;;;33.61;34.36;100423.06;146626;563;45016;-69
2022/07/27 08:17:19;;;;;;;;;16.25;12.75;;;;;33.57;33.67;100422.34;146631;582;45010;-70
2022/07/27 08:20:18;;;;;;;;;14.00;14.00;;;;;33.56;36.10;100423.31;146627;620;45017;-68
2022/07/27 08:23:12;;;;;;;;;14.00;13.25;;;;;33.51;36.46;100421.78;146631;678;45010;-68
2022/07/27 08:26:03;;;;;;;;;15.50;13.25;;;;;33.46;35.41;100418.41;146627;573;45012;-70
2022/07/27 08:28:56;;;;;;;;;17.50;13.75;;;;;33.51;36.59;100422.66;146628;586;45020;-71
2022/07/27 08:31:47;;;;;;;;;14.50;14.50;;;;;33.68;36.83;100423.66;146625;603;45016;-71
2022/07/27 08:34:40;;;;;;;;;10.50;10.00;;;;;33.89;36.01;100427.09;146629;565;45010;-72
2022/07/27 08:37:32;;;;;;;;;16.50;16.50;;;;;34.07;36.15;100426.19;146630;600;45017;-71
2022/07/27 08:40:25;;;;;;;;;14.00;13.75;;;;;34.24;33.19;100433.41;146629;624;45011;-71
2022/07/27 08:43:19;;;;;;;;;12.00;11.25;;;;;34.25;33.13;100427.06;146626;756;45926;-70
2022/07/27 08:46:14;;;;;;;;;13.75;12.00;;;;;34.13;31.30;100433.94;146623;629;46921;-69
2022/07/27 08:49:06;;;;;;;;;12.75;12.00;;;;;34.16;32.74;100433.78;146627;571;45017;-66
2022/07/27 08:51:58;;;;;;;;;12.75;12.75;;;;;34.19;30.52;100435.44;146631;592;45010;-67
2022/07/27 08:54:50;;;;;;;;;13.00;13.00;;;;;34.19;29.66;100443.53;146625;588;45016;-69
2022/07/27 08:57:42;;;;;;;;;12.00;12.00;;;;;34.12;29.55;100439.41;146630;564;45012;-69
2022/07/27 09:00:35;;;;;;;;;12.75;11.50;;;;;33.94;28.01;100441.19;146626;602;45016;-70
2022/07/27 09:03:27;;;;;;;;;9.25;7.75;;;;;33.79;25.39;100441.00;146622;580;46021;-69
2022/07/27 09:07:04;;;;;;;;;10.00;9.50;;;;;32.84;25.84;100270.94;146604;630;46016;-70
2022/07/27 09:09:57;;;;;;;;;10.00;9.25;;;;;33.96;28.27;100440.16;146607;569;46010;-69
2022/07/27 09:12:48;;;;;;;;;8.00;8.00;;;;;34.06;27.65;100443.28;146606;710;46012;-70
2022/07/27 09:15:48;;;;;;;;;10.75;9.50;;;;;34.14;27.36;100430.28;146606;597;47010;-70
2022/07/27 09:18:41;;;;;;;;;8.25;8.25;;;;;34.23;26.46;100437.88;146606;646;46017;-69
2022/07/27 09:21:33;;;;;;;;;8.25;8.25;;;;;34.35;29.08;100425.62;146608;569;46010;-70
2022/07/27 09:24:28;;;;;;;;;10.25;9.25;;;;;34.47;29.12;100433.06;146605;576;46926;-69
2022/07/27 09:27:23;;;;;;;;;10.00;9.50;;;;;34.56;27.98;100429.03;146607;565;46010;-69
2022/07/27 09:30:21;;;;;;;;;9.25;9.25;;;;;34.67;29.38;100426.66;146606;574;46016;-70
2022/07/27 09:33:13;;;;;;;;;9.00;9.00;;;;;34.85;28.96;100423.91;146605;569;46021;-70
2022/07/27 09:36:14;;;;;;;;;9.75;9.75;;;;;34.94;28.52;100420.72;146601;659;46016;-69
2022/07/27 09:39:08;;;;;;;;;8.50;8.50;;;;;34.90;27.42;100421.84;146606;703;46020;-69
2022/07/27 09:42:03;;;;;;;;;10.25;9.25;;;;;34.93;28.38;100418.97;146605;589;46017;-70
2022/07/27 09:44:55;;;;;;;;;9.25;8.25;;;;;34.98;29.11;100419.56;146607;634;46020;-69
2022/07/27 09:47:48;;;;;;;;;9.75;9.00;;;;;35.03;27.76;100416.66;146605;566;46016;-70
2022/07/27 09:50:43;;;;;;;;;6.75;6.75;;;;;35.07;29.22;100412.84;146604;596;46021;-69
2022/07/27 09:53:37;;;;;;;;;8.25;8.25;;;;;35.11;26.55;100420.69;146604;675;46016;-70
2022/07/27 09:56:34;;;;;;;;;8.50;8.50;;;;;35.12;29.23;100405.38;146608;576;46020;-70
2022/07/27 09:59:26;;;;;;;;;10.50;9.25;;;;;35.16;27.09;100409.63;146606;602;46016;-69
2022/07/27 10:02:18;;;;;;;;;13.50;11.00;;;;;35.22;28.15;100405.75;146606;570;46020;-69
2022/07/27 10:05:12;;;;;;;;;10.50;10.50;;;;;35.17;28.06;100412.25;146604;620;46012;-70
2022/07/27 10:08:04;;;;;;;;;10.25;10.25;;;;;35.10;26.95;100405.47;146604;591;46020;-69
2022/07/27 10:10:57;;;;;;;;;9.00;8.25;;;;;35.14;28.96;100400.75;146604;592;46017;-71
2022/07/27 10:13:49;;;;;;;;;14.00;13.50;;;;;35.17;30.33;100398.78;146605;571;47012;-71
2022/07/27 10:16:42;;;;;;;;;12.25;12.00;;;;;35.13;29.64;100397.19;146603;616;46016;-69
2022/07/27 10:19:54;;;;;;;;;11.00;11.00;;;;;34.27;31.27;100239.47;146604;583;46020;-71
2022/07/27 10:22:58;;;;;;;;;9.00;9.00;;;;;35.31;30.64;100399.81;146604;659;46016;-71
2022/07/27 10:25:50;;;;;;;;;10.50;10.00;;;;;35.38;30.97;100387.72;146604;571;46021;-69
2022/07/27 10:29:05;;;;;;;;;11.50;11.25;;;;;35.50;31.70;100396.94;146601;567;46016;-70
2022/07/27 10:32:03;;;;;;;;;10.75;10.50;;;;;35.47;31.42;100392.59;146604;675;46020;-70
2022/07/27 10:34:55;;;;;;;;;14.75;14.75;;;;;35.43;31.17;100393.72;146603;566;46017;-69
2022/07/27 10:38:20;;;;;;;;;12.50;11.75;;;;;34.50;30.39;100224.75;146607;691;46010;-70
2022/07/27 10:41:34;;;;;;;;;14.50;14.00;;;;;35.40;31.94;100386.69;146603;637;46920;-70
2022/07/27 10:44:35;;;;;;;;;9.25;9.00;;;;;35.37;29.66;100386.88;146607;690;46020;-70
2022/07/27 10:47:47;;;;;;;;;12.00;10.50;;;;;35.40;32.08;100383.13;146603;592;46016;-70
2022/07/27 10:50:42;;;;;;;;;13.00;11.00;;;;;35.43;30.68;100384.78;146605;600;46029;-69
2022/07/27 10:53:38;;;;;;;;;13.25;13.25;;;;;35.48;31.53;100375.44;146604;586;46016;-70
2022/07/27 10:56:50;;;;;;;;;14.50;13.50;;;;;35.55;31.29;100384.09;146608;575;45922;-70
2022/07/27 11:00:05;;;;;;;;;16.75;14.25;;;;;35.56;31.89;100378.59;146604;571;46016;-70
2022/07/27 11:03:01;;;;;;;;;11.00;10.25;;;;;35.55;30.57;100373.31;146605;608;46011;-69
2022/07/27 11:06:01;;;;;;;;;15.75;14.75;;;;;35.55;32.89;100376.88;146604;605;46016;-71
2022/07/27 11:08:55;;;;;;;;;17.00;15.00;;;;;35.58;32.33;100368.63;146607;578;46020;-71
2022/07/27 11:11:51;;;;;;;;;12.25;11.00;;;;;35.60;33.40;100374.75;146606;567;46017;-69
2022/07/27 11:15:01;;;;;;;;;14.75;13.50;;;;;35.53;33.47;100368.00;146606;601;46020;-69
2022/07/27 11:17:59;;;;;;;;;14.00;13.50;;;;;35.49;33.43;100366.41;146605;660;46014;-71
2022/07/27 11:20:55;;;;;;;;;15.00;13.50;;;;;35.45;33.44;100372.06;146606;569;46020;-70
2022/07/27 11:24:01;;;;;;;;;14.50;13.50;;;;;35.44;33.82;100368.50;146602;565;46016;-71
2022/07/27 11:26:55;;;;;;;;;15.00;14.50;;;;;35.45;33.13;100375.63;146605;581;46020;-71
2022/07/27 11:29:47;;;;;;;;;15.00;15.00;;;;;35.44;33.32;100371.19;146603;569;46016;-69
2022/07/27 11:32:51;;;;;;;;;16.50;16.00;;;;;35.37;33.85;100365.28;146602;571;46020;-69
2022/07/27 11:36:00;;;;;;;;;13.00;13.00;;;;;35.31;33.91;100362.94;146604;627;46016;-71
2022/07/27 11:38:58;;;;;;;;;16.00;15.00;;;;;35.22;34.56;100352.69;146606;575;46010;-71
2022/07/27 11:41:52;;;;;;;;;12.75;12.75;;;;;35.24;34.58;100358.00;146603;571;46017;-71
2022/07/27 11:44:45;;;;;;;;;15.00;13.00;;;;;35.22;34.85;100359.91;146606;607;46010;-70
2022/07/27 11:47:45;;;;;;;;;13.00;12.50;;;;;35.23;34.82;100351.72;146603;619;47013;-70
2022/07/27 11:50:37;;;;;;;;;14.50;14.25;;;;;35.25;34.17;100355.22;146608;610;46012;-69
2022/07/27 11:53:30;;;;;;;;;13.75;13.25;;;;;35.22;34.13;100352.69;146604;602;45921;-71
2022/07/27 11:56:26;;;;;;;;;13.75;13.25;;;;;35.27;33.34;100350.62;146606;575;46012;-70
2022/07/27 11:59:21;;;;;;;;;12.25;12.25;;;;;35.32;34.29;100343.13;146603;578;46016;-70
2022/07/27 12:02:20;;;;;;;;;15.25;15.00;;;;;35.44;34.37;100338.84;146606;639;46011;-71
2022/07/27 12:05:16;;;;;;;;;14.00;13.25;;;;;35.52;34.42;100336.59;146603;585;46012;-70
2022/07/27 12:08:11;;;;;;;;;12.25;12.25;;;;;35.57;35.03;100329.09;146606;660;46010;-70
2022/07/27 12:11:05;;;;;;;;;17.00;13.50;;;;;35.60;35.55;100331.63;146605;598;46014;-68
2022/07/27 12:14:01;;;;;;;;;15.75;14.00;;;;;35.51;36.45;100332.13;146607;660;46010;-69
2022/07/27 12:16:53;;;;;;;;;12.75;12.50;;;;;35.38;36.58;100340.06;146604;732;46017;-68
2022/07/27 12:19:52;;;;;;;;;13.00;13.00;;;;;35.38;37.04;100334.66;146608;605;46010;-68
2022/07/27 12:22:54;;;;;;;;;14.25;13.75;;;;;35.33;35.81;100331.41;146603;578;47012;-69
2022/07/27 12:25:50;;;;;;;;;12.75;11.75;;;;;35.27;35.15;100328.19;146603;567;46032;-69
2022/07/27 12:28:44;;;;;;;;;13.75;13.75;;;;;35.31;38.29;100325.22;146600;608;47925;-68
2022/07/27 12:31:38;;;;;;;;;15.50;14.25;;;;;35.36;37.10;100323.12;146605;587;47010;-68
2022/07/27 12:34:41;;;;;;;;;12.25;12.00;;;;;35.43;35.73;100312.84;146603;571;46016;-69
2022/07/27 12:37:41;;;;;;;;;15.75;15.75;;;;;35.48;35.55;100309.88;146605;600;46010;-69
2022/07/27 12:40:36;;;;;;;;;12.25;12.25;;;;;35.49;35.73;100311.63;146604;605;47012;-70
2022/07/27 12:43:29;;;;;;;;;11.25;11.25;;;;;35.48;34.72;100310.72;146607;634;46010;-70
2022/07/27 12:46:21;;;;;;;;;14.50;14.00;;;;;35.53;35.26;100313.19;146604;569;46017;-68
2022/07/27 12:49:20;;;;;;;;;11.50;10.75;;;;;35.56;34.82;100299.53;146609;570;45028;-70
2022/07/27 12:52:15;;;;;;;;;12.25;12.25;;;;;35.55;35.34;100305.91;146604;633;46016;-69
2022/07/27 12:55:09;;;;;;;;;15.00;14.25;;;;;35.47;34.62;100302.75;146606;729;46020;-68
2022/07/27 12:58:01;;;;;;;;;16.50;14.75;;;;;35.34;35.77;100305.31;146606;637;46014;-69
2022/07/27 13:00:54;;;;;;;;;14.00;13.00;;;;;35.27;35.29;100295.84;146600;607;47011;-68
2022/07/27 13:03:47;;;;;;;;;13.75;13.50;;;;;35.26;36.47;100289.56;146605;615;46014;-67
2022/07/27 13:06:40;;;;;;;;;14.25;13.75;;;;;35.28;35.87;100292.19;146606;611;46921;-68
2022/07/27 13:09:34;;;;;;;;;10.25;10.25;;;;;35.19;37.21;100301.66;146603;625;46017;-67
2022/07/27 13:12:35;;;;;;;;;16.00;15.50;;;;;35.10;36.21;100297.66;146607;564;46010;-67
2022/07/27 13:15:32;;;;;;;;;13.50;12.50;;;;;35.06;37.35;100298.81;146604;587;46012;-67
2022/07/27 13:18:25;;;;;;;;;11.75;11.25;;;;;35.05;36.44;100306.97;146605;633;47010;-74
2022/07/27 13:21:18;;;;;;;;;14.00;11.25;;;;;35.05;36.38;100293.50;146604;615;47012;-69
2022/07/27 13:24:12;;;;;;;;;11.75;11.75;;;;;35.03;35.44;100293.59;146606;587;46010;-68
2022/07/27 13:27:04;;;;;;;;;13.75;12.00;;;;;35.03;36.38;100288.22;146604;573;46016;-69
2022/07/27 13:29:57;;;;;;;;;13.50;13.50;;;;;35.01;36.21;100291.91;146603;574;47010;-69
2022/07/27 13:32:54;;;;;;;;;14.00;14.00;;;;;34.97;36.13;100282.28;146603;603;46926;-68
2022/07/27 13:35:47;;;;;;;;;17.50;17.50;;;;;34.94;36.41;100278.78;146607;697;46020;-68
2022/07/27 13:38:40;;;;;;;;;13.25;12.75;;;;;34.24;36.78;100154.41;146602;618;46016;-75
2022/07/27 13:41:35;;;;;;;;;15.50;15.50;;;;;34.99;37.17;100264.22;146607;643;46020;-70
2022/07/27 13:44:28;;;;;;;;;15.00;14.00;;;;;35.03;37.98;100276.53;146603;587;47012;-71